sensor_id;sensor_type;location;lat;lon;timestamp;temperature;humidity
2783;DHT22;1399;47.072;15.452;2023-09-08T00:02:07;17.80;89.70
2783;DHT22;1399;47.072;15.452;2023-09-08T00:04:32;17.80;89.70
2783;DHT22;1399;47.072;15.452;2023-09-08T00:06:58;17.80;89.70
2783;DHT22;1399;47.072;15.452;2023-09-08T00:09:24;17.70;89.60
2783;DHT22;1399;47.072;15.452;2023-09-08T00:11:50;17.70;89.60
2783;DHT22;1399;47.072;15.452;2023-09-08T00:14:17;17.70;89.70
2783;DHT22;1399;47.072;15.452;2023-09-08T00:16:42;17.70;89.60
2783;DHT22;1399;47.072;15.452;2023-09-08T00:19:11;17.70;89.70
2783;DHT22;1399;47.072;15.452;2023-09-08T00:21:37;17.70;89.70
2783;DHT22;1399;47.072;15.452;2023-09-08T00:24:04;17.70;89.80
2783;DHT22;1399;47.072;15.452;2023-09-08T00:26:31;17.60;90.20
2783;DHT22;1399;47.072;15.452;2023-09-08T00:28:56;17.70;89.80
2783;DHT22;1399;47.072;15.452;2023-09-08T00:31:22;17.60;89.70
2783;DHT22;1399;47.072;15.452;2023-09-08T00:33:48;17.60;89.70
2783;DHT22;1399;47.072;15.452;2023-09-08T00:36:13;17.60;89.70
2783;DHT22;1399;47.072;15.452;2023-09-08T00:38:40;17.60;89.80
2783;DHT22;1399;47.072;15.452;2023-09-08T00:41:07;17.60;89.80
2783;DHT22;1399;47.072;15.452;2023-09-08T00:43:33;17.60;89.80
2783;DHT22;1399;47.072;15.452;2023-09-08T00:45:59;17.50;89.80
2783;DHT22;1399;47.072;15.452;2023-09-08T00:48:28;17.50;89.80
2783;DHT22;1399;47.072;15.452;2023-09-08T00:50:55;17.50;89.80
2783;DHT22;1399;47.072;15.452;2023-09-08T00:53:21;17.50;89.80
2783;DHT22;1399;47.072;15.452;2023-09-08T00:55:48;17.50;89.80
2783;DHT22;1399;47.072;15.452;2023-09-08T00:58:14;17.50;89.80
2783;DHT22;1399;47.072;15.452;2023-09-08T01:00:40;17.50;89.90
2783;DHT22;1399;47.072;15.452;2023-09-08T01:03:06;17.50;89.90
2783;DHT22;1399;47.072;15.452;2023-09-08T01:05:32;17.50;89.90
2783;DHT22;1399;47.072;15.452;2023-09-08T01:07:59;17.50;89.90
2783;DHT22;1399;47.072;15.452;2023-09-08T01:10:25;17.50;89.90
2783;DHT22;1399;47.072;15.452;2023-09-08T01:12:51;17.40;89.80
2783;DHT22;1399;47.072;15.452;2023-09-08T01:15:16;17.40;89.80
2783;DHT22;1399;47.072;15.452;2023-09-08T01:17:42;17.40;89.80
2783;DHT22;1399;47.072;15.452;2023-09-08T01:20:20;17.40;89.80
2783;DHT22;1399;47.072;15.452;2023-09-08T01:23:21;17.40;89.80
2783;DHT22;1399;47.072;15.452;2023-09-08T01:25:59;17.40;89.80
2783;DHT22;1399;47.072;15.452;2023-09-08T01:28:26;17.40;89.80
2783;DHT22;1399;47.072;15.452;2023-09-08T01:30:54;17.30;89.70
2783;DHT22;1399;47.072;15.452;2023-09-08T01:33:22;17.30;89.70
2783;DHT22;1399;47.072;15.452;2023-09-08T01:35:49;17.40;89.90
2783;DHT22;1399;47.072;15.452;2023-09-08T01:38:15;17.30;89.80
2783;DHT22;1399;47.072;15.452;2023-09-08T01:40:41;17.30;89.80
2783;DHT22;1399;47.072;15.452;2023-09-08T01:43:07;17.30;89.80
2783;DHT22;1399;47.072;15.452;2023-09-08T01:45:33;17.30;89.80
2783;DHT22;1399;47.072;15.452;2023-09-08T01:47:58;17.30;89.80
2783;DHT22;1399;47.072;15.452;2023-09-08T01:50:24;17.30;89.80
2783;DHT22;1399;47.072;15.452;2023-09-08T01:52:50;17.30;89.80
2783;DHT22;1399;47.072;15.452;2023-09-08T01:55:16;17.30;89.90
2783;DHT22;1399;47.072;15.452;2023-09-08T01:57:43;17.30;89.90
2783;DHT22;1399;47.072;15.452;2023-09-08T02:00:10;17.30;89.80
2783;DHT22;1399;47.072;15.452;2023-09-08T02:02:37;17.20;89.70
2783;DHT22;1399;47.072;15.452;2023-09-08T02:05:02;17.20;89.70
2783;DHT22;1399;47.072;15.452;2023-09-08T02:07:29;17.20;89.70
2783;DHT22;1399;47.072;15.452;2023-09-08T02:09:54;17.20;89.80
2783;DHT22;1399;47.072;15.452;2023-09-08T02:12:21;17.20;89.70
2783;DHT22;1399;47.072;15.452;2023-09-08T02:14:47;17.20;89.80
2783;DHT22;1399;47.072;15.452;2023-09-08T02:17:12;17.20;89.80
2783;DHT22;1399;47.072;15.452;2023-09-08T02:19:38;17.20;89.70
2783;DHT22;1399;47.072;15.452;2023-09-08T02:22:04;17.20;89.80
2783;DHT22;1399;47.072;15.452;2023-09-08T02:24:30;17.20;89.80
2783;DHT22;1399;47.072;15.452;2023-09-08T02:26:55;17.20;89.80
2783;DHT22;1399;47.072;15.452;2023-09-08T02:29:21;17.10;89.80
2783;DHT22;1399;47.072;15.452;2023-09-08T02:31:48;17.10;89.70
2783;DHT22;1399;47.072;15.452;2023-09-08T02:34:14;17.10;89.80
2783;DHT22;1399;47.072;15.452;2023-09-08T02:36:40;17.10;89.80
2783;DHT22;1399;47.072;15.452;2023-09-08T02:39:06;17.10;89.80
2783;DHT22;1399;47.072;15.452;2023-09-08T02:41:32;17.10;89.80
2783;DHT22;1399;47.072;15.452;2023-09-08T02:43:58;17.10;89.80
2783;DHT22;1399;47.072;15.452;2023-09-08T02:46:24;17.10;89.80
2783;DHT22;1399;47.072;15.452;2023-09-08T02:48:50;17.10;89.80
2783;DHT22;1399;47.072;15.452;2023-09-08T02:51:16;17.10;89.80
2783;DHT22;1399;47.072;15.452;2023-09-08T02:53:42;17.10;89.80
2783;DHT22;1399;47.072;15.452;2023-09-08T02:56:07;17.00;90.20
2783;DHT22;1399;47.072;15.452;2023-09-08T02:58:35;17.00;89.60
2783;DHT22;1399;47.072;15.452;2023-09-08T03:01:12;17.00;89.60
2783;DHT22;1399;47.072;15.452;2023-09-08T03:03:41;17.00;89.70
2783;DHT22;1399;47.072;15.452;2023-09-08T03:06:07;17.00;89.70
2783;DHT22;1399;47.072;15.452;2023-09-08T03:08:33;17.00;89.70
2783;DHT22;1399;47.072;15.452;2023-09-08T03:10:59;17.00;89.70
2783;DHT22;1399;47.072;15.452;2023-09-08T03:13:25;17.00;90.20
2783;DHT22;1399;47.072;15.452;2023-09-08T03:15:52;17.00;89.70
2783;DHT22;1399;47.072;15.452;2023-09-08T03:18:18;17.00;89.70
2783;DHT22;1399;47.072;15.452;2023-09-08T03:20:50;17.00;89.70
2783;DHT22;1399;47.072;15.452;2023-09-08T03:23:17;17.00;89.80
2783;DHT22;1399;47.072;15.452;2023-09-08T03:25:43;16.90;89.70
2783;DHT22;1399;47.072;15.452;2023-09-08T03:28:09;16.90;90.20
2783;DHT22;1399;47.072;15.452;2023-09-08T03:30:35;16.90;89.70
2783;DHT22;1399;47.072;15.452;2023-09-08T03:33:01;16.90;89.70
2783;DHT22;1399;47.072;15.452;2023-09-08T03:35:26;16.90;89.60
2783;DHT22;1399;47.072;15.452;2023-09-08T03:37:52;16.90;89.60
2783;DHT22;1399;47.072;15.452;2023-09-08T03:40:18;16.90;89.60
2783;DHT22;1399;47.072;15.452;2023-09-08T03:42:43;16.90;89.60
2783;DHT22;1399;47.072;15.452;2023-09-08T03:45:09;16.90;89.60
2783;DHT22;1399;47.072;15.452;2023-09-08T03:47:35;16.90;89.60
2783;DHT22;1399;47.072;15.452;2023-09-08T03:50:01;16.90;89.60
2783;DHT22;1399;47.072;15.452;2023-09-08T03:52:27;16.80;89.50
2783;DHT22;1399;47.072;15.452;2023-09-08T03:54:52;16.90;89.50
2783;DHT22;1399;47.072;15.452;2023-09-08T03:57:18;16.80;89.40
2783;DHT22;1399;47.072;15.452;2023-09-08T03:59:44;16.80;89.50
2783;DHT22;1399;47.072;15.452;2023-09-08T04:02:10;16.80;89.50
2783;DHT22;1399;47.072;15.452;2023-09-08T04:04:35;16.80;89.50
2783;DHT22;1399;47.072;15.452;2023-09-08T04:07:01;16.80;89.50
2783;DHT22;1399;47.072;15.452;2023-09-08T04:09:27;16.80;89.50
2783;DHT22;1399;47.072;15.452;2023-09-08T04:11:54;16.80;89.50
2783;DHT22;1399;47.072;15.452;2023-09-08T04:14:21;16.80;89.50
2783;DHT22;1399;47.072;15.452;2023-09-08T04:16:49;16.80;89.50
2783;DHT22;1399;47.072;15.452;2023-09-08T04:19:14;16.80;89.50
2783;DHT22;1399;47.072;15.452;2023-09-08T04:21:41;16.80;89.50
2783;DHT22;1399;47.072;15.452;2023-09-08T04:24:07;16.80;89.50
2783;DHT22;1399;47.072;15.452;2023-09-08T04:26:36;16.80;89.40
2783;DHT22;1399;47.072;15.452;2023-09-08T04:29:01;16.80;89.40
2783;DHT22;1399;47.072;15.452;2023-09-08T04:31:27;16.80;89.40
2783;DHT22;1399;47.072;15.452;2023-09-08T04:33:54;16.80;89.40
2783;DHT22;1399;47.072;15.452;2023-09-08T04:36:19;16.70;89.20
2783;DHT22;1399;47.072;15.452;2023-09-08T04:38:45;16.70;89.20
2783;DHT22;1399;47.072;15.452;2023-09-08T04:41:11;16.70;89.20
2783;DHT22;1399;47.072;15.452;2023-09-08T04:43:37;16.70;89.20
2783;DHT22;1399;47.072;15.452;2023-09-08T04:46:02;16.70;89.20
2783;DHT22;1399;47.072;15.452;2023-09-08T04:48:29;16.70;89.10
2783;DHT22;1399;47.072;15.452;2023-09-08T04:50:56;16.70;89.10
2783;DHT22;1399;47.072;15.452;2023-09-08T04:53:22;16.70;89.10
2783;DHT22;1399;47.072;15.452;2023-09-08T04:55:48;16.70;89.10
2783;DHT22;1399;47.072;15.452;2023-09-08T04:58:14;16.70;90.00
2783;DHT22;1399;47.072;15.452;2023-09-08T05:00:39;16.70;89.10
2783;DHT22;1399;47.072;15.452;2023-09-08T05:03:05;16.70;89.10
2783;DHT22;1399;47.072;15.452;2023-09-08T05:05:32;16.70;89.10
2783;DHT22;1399;47.072;15.452;2023-09-08T05:07:58;16.80;89.20
2783;DHT22;1399;47.072;15.452;2023-09-08T05:10:24;16.80;89.20
2783;DHT22;1399;47.072;15.452;2023-09-08T05:12:51;16.70;89.00
2783;DHT22;1399;47.072;15.452;2023-09-08T05:15:17;16.80;89.10
2783;DHT22;1399;47.072;15.452;2023-09-08T05:17:46;16.80;89.10
2783;DHT22;1399;47.072;15.452;2023-09-08T05:20:11;16.80;89.10
2783;DHT22;1399;47.072;15.452;2023-09-08T05:22:37;16.80;89.10
2783;DHT22;1399;47.072;15.452;2023-09-08T05:25:04;16.80;89.10
2783;DHT22;1399;47.072;15.452;2023-09-08T05:27:30;16.90;89.10
2783;DHT22;1399;47.072;15.452;2023-09-08T05:29:57;16.90;89.20
2783;DHT22;1399;47.072;15.452;2023-09-08T05:32:22;16.90;89.10
2783;DHT22;1399;47.072;15.452;2023-09-08T05:34:48;16.90;89.10
2783;DHT22;1399;47.072;15.452;2023-09-08T05:37:14;16.90;89.00
2783;DHT22;1399;47.072;15.452;2023-09-08T05:39:40;17.00;89.10
2783;DHT22;1399;47.072;15.452;2023-09-08T05:42:06;17.00;89.10
2783;DHT22;1399;47.072;15.452;2023-09-08T05:44:32;17.00;89.10
2783;DHT22;1399;47.072;15.452;2023-09-08T05:46:58;17.00;89.00
2783;DHT22;1399;47.072;15.452;2023-09-08T05:49:23;17.10;89.10
2783;DHT22;1399;47.072;15.452;2023-09-08T05:51:49;17.10;89.10
2783;DHT22;1399;47.072;15.452;2023-09-08T05:54:15;17.10;89.10
2783;DHT22;1399;47.072;15.452;2023-09-08T05:56:41;17.20;89.20
2783;DHT22;1399;47.072;15.452;2023-09-08T05:59:06;17.20;89.00
2783;DHT22;1399;47.072;15.452;2023-09-08T06:01:32;17.20;89.00
2783;DHT22;1399;47.072;15.452;2023-09-08T06:03:58;17.20;88.90
2783;DHT22;1399;47.072;15.452;2023-09-08T06:06:24;17.30;88.90
2783;DHT22;1399;47.072;15.452;2023-09-08T06:08:51;17.30;89.00
2783;DHT22;1399;47.072;15.452;2023-09-08T06:11:16;17.60;88.90
2783;DHT22;1399;47.072;15.452;2023-09-08T06:13:42;18.00;87.90
2783;DHT22;1399;47.072;15.452;2023-09-08T06:16:08;18.40;86.60
2783;DHT22;1399;47.072;15.452;2023-09-08T06:18:34;18.80;85.00
2783;DHT22;1399;47.072;15.452;2023-09-08T06:21:06;19.10;83.90
2783;DHT22;1399;47.072;15.452;2023-09-08T06:23:33;19.30;82.70
2783;DHT22;1399;47.072;15.452;2023-09-08T06:25:59;19.50;81.70
2783;DHT22;1399;47.072;15.452;2023-09-08T06:28:26;19.60;81.10
2783;DHT22;1399;47.072;15.452;2023-09-08T06:30:53;19.80;80.70
2783;DHT22;1399;47.072;15.452;2023-09-08T06:33:19;19.80;80.40
2783;DHT22;1399;47.072;15.452;2023-09-08T06:35:46;19.80;80.30
2783;DHT22;1399;47.072;15.452;2023-09-08T06:38:12;19.80;80.50
2783;DHT22;1399;47.072;15.452;2023-09-08T06:40:39;19.80;80.80
2783;DHT22;1399;47.072;15.452;2023-09-08T06:43:05;19.80;81.10
2783;DHT22;1399;47.072;15.452;2023-09-08T06:45:31;19.70;81.30
2783;DHT22;1399;47.072;15.452;2023-09-08T06:47:57;19.70;81.60
2783;DHT22;1399;47.072;15.452;2023-09-08T06:50:23;19.60;81.70
2783;DHT22;1399;47.072;15.452;2023-09-08T06:52:52;19.60;81.90
2783;DHT22;1399;47.072;15.452;2023-09-08T06:55:18;19.60;82.10
2783;DHT22;1399;47.072;15.452;2023-09-08T06:57:45;19.60;82.30
2783;DHT22;1399;47.072;15.452;2023-09-08T07:00:12;19.60;82.30
2783;DHT22;1399;47.072;15.452;2023-09-08T07:02:39;19.60;82.30
2783;DHT22;1399;47.072;15.452;2023-09-08T07:05:05;19.60;82.30
2783;DHT22;1399;47.072;15.452;2023-09-08T07:07:34;19.60;82.40
2783;DHT22;1399;47.072;15.452;2023-09-08T07:10:04;19.60;82.40
2783;DHT22;1399;47.072;15.452;2023-09-08T07:12:30;19.60;82.40
2783;DHT22;1399;47.072;15.452;2023-09-08T07:14:56;19.60;82.40
2783;DHT22;1399;47.072;15.452;2023-09-08T07:17:22;19.60;82.40
2783;DHT22;1399;47.072;15.452;2023-09-08T07:19:51;19.60;82.50
2783;DHT22;1399;47.072;15.452;2023-09-08T07:22:17;19.60;82.50
2783;DHT22;1399;47.072;15.452;2023-09-08T07:24:44;19.60;82.50
2783;DHT22;1399;47.072;15.452;2023-09-08T07:27:10;19.70;82.50
2783;DHT22;1399;47.072;15.452;2023-09-08T07:29:38;19.70;82.50
2783;DHT22;1399;47.072;15.452;2023-09-08T07:32:04;19.70;82.50
2783;DHT22;1399;47.072;15.452;2023-09-08T07:34:30;19.70;82.50
2783;DHT22;1399;47.072;15.452;2023-09-08T07:36:56;19.80;82.60
2783;DHT22;1399;47.072;15.452;2023-09-08T07:39:21;19.70;82.40
2783;DHT22;1399;47.072;15.452;2023-09-08T07:41:47;19.80;82.60
2783;DHT22;1399;47.072;15.452;2023-09-08T07:44:13;19.80;82.50
2783;DHT22;1399;47.072;15.452;2023-09-08T07:46:39;19.80;82.40
2783;DHT22;1399;47.072;15.452;2023-09-08T07:49:05;19.80;82.40
2783;DHT22;1399;47.072;15.452;2023-09-08T07:51:30;19.80;82.40
2783;DHT22;1399;47.072;15.452;2023-09-08T07:53:56;19.80;82.40
2783;DHT22;1399;47.072;15.452;2023-09-08T07:56:22;19.90;82.50
2783;DHT22;1399;47.072;15.452;2023-09-08T07:58:48;19.90;82.50
2783;DHT22;1399;47.072;15.452;2023-09-08T08:01:14;19.90;82.40
2783;DHT22;1399;47.072;15.452;2023-09-08T08:03:40;19.90;82.30
2783;DHT22;1399;47.072;15.452;2023-09-08T08:06:06;20.00;82.40
2783;DHT22;1399;47.072;15.452;2023-09-08T08:08:33;20.00;82.40
2783;DHT22;1399;47.072;15.452;2023-09-08T08:11:10;20.00;82.30
2783;DHT22;1399;47.072;15.452;2023-09-08T08:13:36;20.00;82.20
2783;DHT22;1399;47.072;15.452;2023-09-08T08:16:02;20.00;82.30
2783;DHT22;1399;47.072;15.452;2023-09-08T08:18:28;20.00;82.20
2783;DHT22;1399;47.072;15.452;2023-09-08T08:20:53;20.00;82.10
2783;DHT22;1399;47.072;15.452;2023-09-08T08:23:19;20.10;82.10
2783;DHT22;1399;47.072;15.452;2023-09-08T08:25:45;20.10;82.10
2783;DHT22;1399;47.072;15.452;2023-09-08T08:28:11;20.10;82.00
2783;DHT22;1399;47.072;15.452;2023-09-08T08:30:36;20.10;81.90
2783;DHT22;1399;47.072;15.452;2023-09-08T08:33:02;20.10;81.80
2783;DHT22;1399;47.072;15.452;2023-09-08T08:35:29;20.20;81.80
2783;DHT22;1399;47.072;15.452;2023-09-08T08:37:58;20.20;81.70
2783;DHT22;1399;47.072;15.452;2023-09-08T08:40:24;20.20;81.60
2783;DHT22;1399;47.072;15.452;2023-09-08T08:42:57;20.20;81.50
2783;DHT22;1399;47.072;15.452;2023-09-08T08:45:25;20.30;81.50
2783;DHT22;1399;47.072;15.452;2023-09-08T08:47:52;20.30;82.30
2783;DHT22;1399;47.072;15.452;2023-09-08T08:50:18;20.30;81.30
2783;DHT22;1399;47.072;15.452;2023-09-08T08:52:45;20.30;81.30
2783;DHT22;1399;47.072;15.452;2023-09-08T08:55:11;20.30;81.30
2783;DHT22;1399;47.072;15.452;2023-09-08T08:57:40;20.40;81.30
2783;DHT22;1399;47.072;15.452;2023-09-08T09:00:11;20.40;81.30
2783;DHT22;1399;47.072;15.452;2023-09-08T09:02:42;20.40;81.20
2783;DHT22;1399;47.072;15.452;2023-09-08T09:05:12;20.40;81.20
2783;DHT22;1399;47.072;15.452;2023-09-08T09:07:42;20.50;81.20
2783;DHT22;1399;47.072;15.452;2023-09-08T09:10:08;20.50;81.20
2783;DHT22;1399;47.072;15.452;2023-09-08T09:12:36;20.50;81.20
2783;DHT22;1399;47.072;15.452;2023-09-08T09:15:03;20.50;81.20
2783;DHT22;1399;47.072;15.452;2023-09-08T09:17:33;20.50;81.10
2783;DHT22;1399;47.072;15.452;2023-09-08T09:20:16;20.60;81.20
2783;DHT22;1399;47.072;15.452;2023-09-08T09:22:46;20.60;81.10
2783;DHT22;1399;47.072;15.452;2023-09-08T09:25:30;20.60;81.10
2783;DHT22;1399;47.072;15.452;2023-09-08T09:27:58;20.60;81.10
2783;DHT22;1399;47.072;15.452;2023-09-08T09:30:25;20.70;81.20
2783;DHT22;1399;47.072;15.452;2023-09-08T09:33:04;20.70;81.10
2783;DHT22;1399;47.072;15.452;2023-09-08T09:35:44;20.70;81.20
2783;DHT22;1399;47.072;15.452;2023-09-08T09:38:11;20.80;81.30
2783;DHT22;1399;47.072;15.452;2023-09-08T09:40:38;20.80;81.50
2783;DHT22;1399;47.072;15.452;2023-09-08T09:43:05;20.80;81.30
2783;DHT22;1399;47.072;15.452;2023-09-08T09:45:34;20.80;81.20
2783;DHT22;1399;47.072;15.452;2023-09-08T09:48:05;20.80;81.30
2783;DHT22;1399;47.072;15.452;2023-09-08T09:50:36;20.80;81.50
2783;DHT22;1399;47.072;15.452;2023-09-08T09:53:10;20.90;81.50
2783;DHT22;1399;47.072;15.452;2023-09-08T09:55:37;20.90;81.50
2783;DHT22;1399;47.072;15.452;2023-09-08T09:58:08;20.90;81.50
2783;DHT22;1399;47.072;15.452;2023-09-08T10:00:36;21.00;81.50
2783;DHT22;1399;47.072;15.452;2023-09-08T10:03:04;21.00;81.50
2783;DHT22;1399;47.072;15.452;2023-09-08T10:05:30;21.00;81.50
2783;DHT22;1399;47.072;15.452;2023-09-08T10:07:56;21.00;81.50
2783;DHT22;1399;47.072;15.452;2023-09-08T10:10:23;21.00;81.50
2783;DHT22;1399;47.072;15.452;2023-09-08T10:12:55;21.10;81.60
2783;DHT22;1399;47.072;15.452;2023-09-08T10:15:23;21.10;81.60
2783;DHT22;1399;47.072;15.452;2023-09-08T10:17:55;21.10;81.60
2783;DHT22;1399;47.072;15.452;2023-09-08T10:20:27;21.10;81.20
2783;DHT22;1399;47.072;15.452;2023-09-08T10:23:26;21.10;81.20
2783;DHT22;1399;47.072;15.452;2023-09-08T10:25:56;21.20;81.20
2783;DHT22;1399;47.072;15.452;2023-09-08T10:28:25;21.20;81.00
2783;DHT22;1399;47.072;15.452;2023-09-08T10:30:52;21.20;80.80
2783;DHT22;1399;47.072;15.452;2023-09-08T10:33:19;21.20;80.80
2783;DHT22;1399;47.072;15.452;2023-09-08T10:35:46;21.20;81.00
2783;DHT22;1399;47.072;15.452;2023-09-08T10:38:27;21.20;80.90
2783;DHT22;1399;47.072;15.452;2023-09-08T10:40:54;21.30;80.80
2783;DHT22;1399;47.072;15.452;2023-09-08T10:43:39;21.30;80.70
2783;DHT22;1399;47.072;15.452;2023-09-08T10:46:20;21.30;80.40
2783;DHT22;1399;47.072;15.452;2023-09-08T10:48:46;21.30;80.10
2783;DHT22;1399;47.072;15.452;2023-09-08T10:51:13;21.30;80.10
2783;DHT22;1399;47.072;15.452;2023-09-08T10:53:40;21.40;80.30
2783;DHT22;1399;47.072;15.452;2023-09-08T10:56:06;21.40;80.20
2783;DHT22;1399;47.072;15.452;2023-09-08T10:58:36;21.40;80.20
2783;DHT22;1399;47.072;15.452;2023-09-08T11:01:04;21.40;80.70
2783;DHT22;1399;47.072;15.452;2023-09-08T11:06:03;21.40;80.50
2783;DHT22;1399;47.072;15.452;2023-09-08T11:08:29;21.50;80.60
2783;DHT22;1399;47.072;15.452;2023-09-08T11:10:55;21.50;80.30
2783;DHT22;1399;47.072;15.452;2023-09-08T11:13:22;21.50;80.30
2783;DHT22;1399;47.072;15.452;2023-09-08T11:15:50;21.50;80.20
2783;DHT22;1399;47.072;15.452;2023-09-08T11:18:16;21.50;80.20
2783;DHT22;1399;47.072;15.452;2023-09-08T11:20:41;21.50;79.80
2783;DHT22;1399;47.072;15.452;2023-09-08T11:23:10;21.60;80.00
2783;DHT22;1399;47.072;15.452;2023-09-08T11:25:36;21.60;80.10
2783;DHT22;1399;47.072;15.452;2023-09-08T11:28:02;21.60;80.20
2783;DHT22;1399;47.072;15.452;2023-09-08T11:30:28;21.60;80.10
2783;DHT22;1399;47.072;15.452;2023-09-08T11:32:54;21.60;80.00
2783;DHT22;1399;47.072;15.452;2023-09-08T11:35:20;21.60;79.70
2783;DHT22;1399;47.072;15.452;2023-09-08T11:37:46;21.60;79.70
2783;DHT22;1399;47.072;15.452;2023-09-08T11:40:12;21.60;79.70
2783;DHT22;1399;47.072;15.452;2023-09-08T11:42:42;21.70;80.10
2783;DHT22;1399;47.072;15.452;2023-09-08T11:45:16;21.70;80.10
2783;DHT22;1399;47.072;15.452;2023-09-08T11:47:49;21.70;80.00
2783;DHT22;1399;47.072;15.452;2023-09-08T11:50:15;21.70;79.70
2783;DHT22;1399;47.072;15.452;2023-09-08T11:52:52;21.70;79.80
2783;DHT22;1399;47.072;15.452;2023-09-08T11:55:19;21.70;79.50
2783;DHT22;1399;47.072;15.452;2023-09-08T11:57:50;21.70;79.30
2783;DHT22;1399;47.072;15.452;2023-09-08T12:00:20;21.70;79.30
2783;DHT22;1399;47.072;15.452;2023-09-08T12:02:48;21.80;79.60
2783;DHT22;1399;47.072;15.452;2023-09-08T12:05:25;21.80;79.90
2783;DHT22;1399;47.072;15.452;2023-09-08T12:07:52;21.80;79.80
2783;DHT22;1399;47.072;15.452;2023-09-08T12:10:19;21.80;79.60
2783;DHT22;1399;47.072;15.452;2023-09-08T12:12:45;21.80;79.60
2783;DHT22;1399;47.072;15.452;2023-09-08T12:15:11;21.80;79.70
2783;DHT22;1399;47.072;15.452;2023-09-08T12:17:50;21.80;79.70
2783;DHT22;1399;47.072;15.452;2023-09-08T12:20:16;21.80;79.90
2783;DHT22;1399;47.072;15.452;2023-09-08T12:22:49;21.80;79.60
2783;DHT22;1399;47.072;15.452;2023-09-08T12:25:18;21.80;79.50
2783;DHT22;1399;47.072;15.452;2023-09-08T12:27:45;21.80;79.20
2783;DHT22;1399;47.072;15.452;2023-09-08T12:30:21;21.80;79.10
2783;DHT22;1399;47.072;15.452;2023-09-08T12:32:48;21.80;79.20
2783;DHT22;1399;47.072;15.452;2023-09-08T12:35:24;21.80;79.30
2783;DHT22;1399;47.072;15.452;2023-09-08T12:37:57;21.90;79.40
2783;DHT22;1399;47.072;15.452;2023-09-08T12:40:25;21.90;79.60
2783;DHT22;1399;47.072;15.452;2023-09-08T12:42:51;21.90;79.60
2783;DHT22;1399;47.072;15.452;2023-09-08T12:45:19;21.90;79.90
2783;DHT22;1399;47.072;15.452;2023-09-08T12:47:45;21.90;79.90
2783;DHT22;1399;47.072;15.452;2023-09-08T12:50:11;21.90;79.70
2783;DHT22;1399;47.072;15.452;2023-09-08T12:52:38;21.90;79.30
2783;DHT22;1399;47.072;15.452;2023-09-08T12:55:04;21.90;79.60
2783;DHT22;1399;47.072;15.452;2023-09-08T12:57:30;21.90;79.90
2783;DHT22;1399;47.072;15.452;2023-09-08T12:59:56;21.90;79.40
2783;DHT22;1399;47.072;15.452;2023-09-08T13:02:22;21.90;79.40
2783;DHT22;1399;47.072;15.452;2023-09-08T13:04:48;21.90;79.30
2783;DHT22;1399;47.072;15.452;2023-09-08T13:07:15;21.90;79.30
2783;DHT22;1399;47.072;15.452;2023-09-08T13:09:41;21.90;79.50
2783;DHT22;1399;47.072;15.452;2023-09-08T13:12:07;21.90;79.70
2783;DHT22;1399;47.072;15.452;2023-09-08T13:14:34;21.90;79.40
2783;DHT22;1399;47.072;15.452;2023-09-08T13:17:00;21.90;79.40
2783;DHT22;1399;47.072;15.452;2023-09-08T13:19:26;21.90;79.30
2783;DHT22;1399;47.072;15.452;2023-09-08T13:21:52;21.90;79.30
2783;DHT22;1399;47.072;15.452;2023-09-08T13:24:18;21.90;79.00
2783;DHT22;1399;47.072;15.452;2023-09-08T13:26:46;21.90;78.90
2783;DHT22;1399;47.072;15.452;2023-09-08T13:29:12;21.90;79.10
2783;DHT22;1399;47.072;15.452;2023-09-08T13:31:38;22.00;79.90
2783;DHT22;1399;47.072;15.452;2023-09-08T13:34:04;21.90;78.90
2783;DHT22;1399;47.072;15.452;2023-09-08T13:36:31;22.00;78.90
2783;DHT22;1399;47.072;15.452;2023-09-08T13:38:57;22.00;78.80
2783;DHT22;1399;47.072;15.452;2023-09-08T13:41:24;22.00;78.60
2783;DHT22;1399;47.072;15.452;2023-09-08T13:43:50;22.00;78.30
2783;DHT22;1399;47.072;15.452;2023-09-08T13:46:17;22.00;78.40
2783;DHT22;1399;47.072;15.452;2023-09-08T13:48:43;22.00;78.30
2783;DHT22;1399;47.072;15.452;2023-09-08T13:51:09;22.00;78.50
2783;DHT22;1399;47.072;15.452;2023-09-08T13:53:35;22.00;78.70
2783;DHT22;1399;47.072;15.452;2023-09-08T13:56:01;22.00;78.80
2783;DHT22;1399;47.072;15.452;2023-09-08T13:58:30;22.00;78.70
2783;DHT22;1399;47.072;15.452;2023-09-08T14:00:56;22.00;78.70
2783;DHT22;1399;47.072;15.452;2023-09-08T14:03:22;22.00;78.90
2783;DHT22;1399;47.072;15.452;2023-09-08T14:05:48;22.00;78.90
2783;DHT22;1399;47.072;15.452;2023-09-08T14:08:15;22.00;79.20
2783;DHT22;1399;47.072;15.452;2023-09-08T14:10:41;22.00;79.10
2783;DHT22;1399;47.072;15.452;2023-09-08T14:13:07;22.00;78.80
2783;DHT22;1399;47.072;15.452;2023-09-08T14:15:33;22.00;78.60
2783;DHT22;1399;47.072;15.452;2023-09-08T14:17:59;21.90;78.30
2783;DHT22;1399;47.072;15.452;2023-09-08T14:20:26;22.00;78.40
2783;DHT22;1399;47.072;15.452;2023-09-08T14:22:52;22.00;78.40
2783;DHT22;1399;47.072;15.452;2023-09-08T14:25:18;22.00;78.20
2783;DHT22;1399;47.072;15.452;2023-09-08T14:27:45;22.00;78.20
2783;DHT22;1399;47.072;15.452;2023-09-08T14:30:11;22.00;79.40
2783;DHT22;1399;47.072;15.452;2023-09-08T14:32:37;22.00;78.40
2783;DHT22;1399;47.072;15.452;2023-09-08T14:35:03;22.00;78.50
2783;DHT22;1399;47.072;15.452;2023-09-08T14:37:29;22.00;78.60
2783;DHT22;1399;47.072;15.452;2023-09-08T14:39:55;22.00;78.80
2783;DHT22;1399;47.072;15.452;2023-09-08T14:42:21;22.00;78.80
2783;DHT22;1399;47.072;15.452;2023-09-08T14:44:47;21.90;78.70
2783;DHT22;1399;47.072;15.452;2023-09-08T14:47:17;22.00;78.80
2783;DHT22;1399;47.072;15.452;2023-09-08T14:49:44;21.90;78.70
2783;DHT22;1399;47.072;15.452;2023-09-08T14:52:10;21.90;79.00
2783;DHT22;1399;47.072;15.452;2023-09-08T14:54:35;21.90;79.10
2783;DHT22;1399;47.072;15.452;2023-09-08T14:57:02;21.90;79.20
2783;DHT22;1399;47.072;15.452;2023-09-08T14:59:28;21.90;79.00
2783;DHT22;1399;47.072;15.452;2023-09-08T15:01:54;21.90;78.90
2783;DHT22;1399;47.072;15.452;2023-09-08T15:04:20;21.90;78.70
2783;DHT22;1399;47.072;15.452;2023-09-08T15:06:47;21.90;78.60
2783;DHT22;1399;47.072;15.452;2023-09-08T15:09:12;21.90;78.40
2783;DHT22;1399;47.072;15.452;2023-09-08T15:11:38;21.90;78.30
2783;DHT22;1399;47.072;15.452;2023-09-08T15:14:05;21.90;78.40
2783;DHT22;1399;47.072;15.452;2023-09-08T15:16:31;21.90;78.30
2783;DHT22;1399;47.072;15.452;2023-09-08T15:18:57;21.90;78.20
2783;DHT22;1399;47.072;15.452;2023-09-08T15:21:24;21.80;78.10
2783;DHT22;1399;47.072;15.452;2023-09-08T15:23:53;21.80;78.10
2783;DHT22;1399;47.072;15.452;2023-09-08T15:26:19;21.80;78.00
2783;DHT22;1399;47.072;15.452;2023-09-08T15:28:45;21.80;77.90
2783;DHT22;1399;47.072;15.452;2023-09-08T15:31:15;21.80;77.70
2783;DHT22;1399;47.072;15.452;2023-09-08T15:33:41;21.80;77.60
2783;DHT22;1399;47.072;15.452;2023-09-08T15:36:07;21.80;77.50
2783;DHT22;1399;47.072;15.452;2023-09-08T15:38:33;21.80;77.50
2783;DHT22;1399;47.072;15.452;2023-09-08T15:43:34;21.80;77.40
2783;DHT22;1399;47.072;15.452;2023-09-08T15:46:00;21.80;77.40
2783;DHT22;1399;47.072;15.452;2023-09-08T15:48:26;21.80;77.40
2783;DHT22;1399;47.072;15.452;2023-09-08T15:50:52;21.80;77.40